createdAt,value
2017-11-04T00:01:48.711Z,10.04
2017-11-04T00:04:20.082Z,10.09
2017-11-04T00:06:51.722Z,10.08
2017-11-04T00:09:23.190Z,10.07
2017-11-04T00:11:54.789Z,10.06
2017-11-04T00:14:26.130Z,10.04
2017-11-04T00:16:57.516Z,10.08
2017-11-04T00:19:30.132Z,10.11
2017-11-04T00:22:02.683Z,10.07
2017-11-04T00:24:34.352Z,10.04
2017-11-04T00:27:05.901Z,10.04
2017-11-04T00:29:37.605Z,10.08
2017-11-04T00:32:09.591Z,10.05
2017-11-04T00:34:40.930Z,10.00
2017-11-04T00:37:13.507Z,9.97
2017-11-04T00:39:44.820Z,9.90
2017-11-04T00:42:16.133Z,9.91
2017-11-04T00:44:47.813Z,9.93
2017-11-04T00:47:19.317Z,9.92
2017-11-04T00:49:50.732Z,9.91
2017-11-04T00:52:22.417Z,9.92
2017-11-04T00:54:53.733Z,9.91
2017-11-04T00:57:25.047Z,9.88
2017-11-04T00:59:56.352Z,9.83
2017-11-04T01:02:27.653Z,9.81
2017-11-04T01:04:59.263Z,9.78
2017-11-04T01:07:30.623Z,9.83
2017-11-04T01:10:02.707Z,9.88
2017-11-04T01:12:34.372Z,9.92
2017-11-04T01:15:05.982Z,9.98
2017-11-04T01:17:37.497Z,9.99
2017-11-04T01:20:10.394Z,10.01
2017-11-04T01:22:41.799Z,10.00
2017-11-04T01:25:13.750Z,10.03
2017-11-04T01:27:45.532Z,10.04
2017-11-04T01:30:16.854Z,10.04
2017-11-04T01:32:48.186Z,10.04
2017-11-04T01:35:19.867Z,10.06
2017-11-04T01:37:51.169Z,10.02
2017-11-04T01:40:22.532Z,10.03
2017-11-04T01:42:54.164Z,10.02
2017-11-04T01:45:25.499Z,10.00
2017-11-04T01:47:56.957Z,10.01
2017-11-04T01:50:29.626Z,10.02
2017-11-04T01:53:01.166Z,9.99
2017-11-04T01:55:32.553Z,9.94
2017-11-04T01:58:06.329Z,9.93
2017-11-04T02:00:37.863Z,9.97
2017-11-04T02:03:09.964Z,10.02
2017-11-04T02:05:41.599Z,10.03
2017-11-04T02:08:13.001Z,10.03
2017-11-04T02:10:44.593Z,10.03
2017-11-04T02:13:15.951Z,10.02
2017-11-04T02:15:47.862Z,9.98
2017-11-04T02:18:19.229Z,9.97
2017-11-04T02:20:50.890Z,9.99
2017-11-04T02:23:22.213Z,10.00
2017-11-04T02:25:53.525Z,10.01
2017-11-04T02:28:25.168Z,10.02
2017-11-04T02:30:56.479Z,10.02
2017-11-04T02:33:28.078Z,10.02
2017-11-04T02:35:59.438Z,10.01
2017-11-04T02:38:31.083Z,10.00
2017-11-04T02:41:04.453Z,9.96
2017-11-04T02:43:35.750Z,9.93
2017-11-04T02:46:07.571Z,9.88
2017-11-04T02:48:39.396Z,9.94
2017-11-04T02:51:11.638Z,9.99
2017-11-04T02:53:43.017Z,9.99
2017-11-04T02:56:14.734Z,9.95
2017-11-04T02:58:46.040Z,9.95
2017-11-04T03:01:17.363Z,9.94
2017-11-04T03:03:49.009Z,9.86
2017-11-04T03:06:21.371Z,9.78
2017-11-04T03:08:52.966Z,9.74
2017-11-04T03:11:24.286Z,9.78
2017-11-04T03:13:55.607Z,9.77
2017-11-04T03:16:27.236Z,9.78
2017-11-04T03:18:58.547Z,9.82
2017-11-04T03:21:29.993Z,9.84
2017-11-04T03:24:03.850Z,9.85
2017-11-04T03:26:35.229Z,9.85
2017-11-04T03:29:06.909Z,9.89
2017-11-04T03:31:38.536Z,9.92
2017-11-04T03:34:10.818Z,9.97
2017-11-04T03:36:42.145Z,9.98
2017-11-04T03:39:15.100Z,9.95
2017-11-04T03:41:46.436Z,9.94
2017-11-04T03:44:17.889Z,9.91
2017-11-04T03:46:49.552Z,9.87
2017-11-04T03:49:21.082Z,9.89
2017-11-04T03:51:52.381Z,9.88
2017-11-04T03:54:25.031Z,9.90
2017-11-04T03:56:56.366Z,9.91
2017-11-04T03:59:27.685Z,9.91
2017-11-04T04:01:59.317Z,9.90
2017-11-04T04:04:30.676Z,9.88
2017-11-04T04:07:02.459Z,9.84
2017-11-04T04:09:34.347Z,9.83
2017-11-04T04:12:06.518Z,9.82
2017-11-04T04:14:38.017Z,9.80
2017-11-04T04:17:10.370Z,9.81
2017-11-04T04:19:41.695Z,9.75
2017-11-04T04:22:14.256Z,9.74
2017-11-04T04:24:45.596Z,9.74
2017-11-04T04:27:18.579Z,9.76
2017-11-04T04:29:50.514Z,9.79
2017-11-04T04:32:22.113Z,9.81
2017-11-04T04:34:53.469Z,9.78
2017-11-04T04:37:25.908Z,9.74
2017-11-04T04:39:57.355Z,9.68
2017-11-04T04:42:28.771Z,9.65
2017-11-04T04:45:00.467Z,9.67
2017-11-04T04:47:31.893Z,9.67
2017-11-04T04:50:08.533Z,9.65
2017-11-04T04:52:40.767Z,9.63
2017-11-04T04:55:12.917Z,9.67
2017-11-04T04:57:44.245Z,9.70
2017-11-04T05:00:16.473Z,9.72
2017-11-04T05:02:47.847Z,9.78
2017-11-04T05:05:20.805Z,9.81
2017-11-04T05:07:53.073Z,9.86
2017-11-04T05:10:24.724Z,9.88
2017-11-04T05:12:56.056Z,9.92
2017-11-04T05:15:27.531Z,9.94
2017-11-04T05:17:59.116Z,9.93
2017-11-04T05:20:30.491Z,9.95
2017-11-04T05:23:02.614Z,10.03
2017-11-04T05:25:34.233Z,10.00
2017-11-04T05:28:07.757Z,10.02
2017-11-04T05:30:39.102Z,10.03
2017-11-04T05:33:13.483Z,10.07
2017-11-04T05:35:44.873Z,10.11
2017-11-04T05:38:16.471Z,10.15
2017-11-04T05:40:48.240Z,10.17
2017-11-04T05:43:19.669Z,10.20
2017-11-04T05:45:50.996Z,10.23
2017-11-04T05:48:22.352Z,10.22
2017-11-04T05:50:53.759Z,10.23
2017-11-04T05:53:25.391Z,10.24
2017-11-04T05:55:57.653Z,10.22
2017-11-04T05:58:29.121Z,10.22
2017-11-04T06:01:01.029Z,10.22
2017-11-04T06:03:32.346Z,10.19
2017-11-04T06:06:04.856Z,10.24
2017-11-04T06:09:39.127Z,10.21
2017-11-04T06:12:10.608Z,10.20
2017-11-04T06:14:41.965Z,10.20
2017-11-04T06:17:13.792Z,10.19
2017-11-04T06:19:45.096Z,10.12
2017-11-04T06:22:17.066Z,10.11
2017-11-04T06:24:49.205Z,10.09
2017-11-04T06:27:20.965Z,10.06
2017-11-04T06:29:52.544Z,10.02
2017-11-04T06:32:24.007Z,9.96
2017-11-04T06:34:55.352Z,9.99
2017-11-04T06:37:27.045Z,10.02
2017-11-04T06:39:58.353Z,10.11
2017-11-04T06:42:29.898Z,10.08
2017-11-04T06:45:01.819Z,10.10
2017-11-04T06:47:33.173Z,10.13
2017-11-04T06:50:05.388Z,10.16
2017-11-04T06:52:37.165Z,10.13
2017-11-04T06:55:08.674Z,10.13
2017-11-04T06:57:40.102Z,10.14
2017-11-04T07:00:12.363Z,10.21
2017-11-04T07:02:43.757Z,10.26
2017-11-04T07:05:15.441Z,10.32
2017-11-04T07:07:46.811Z,10.34
2017-11-04T07:10:18.165Z,10.44
2017-11-04T07:12:49.874Z,10.53
2017-11-04T07:15:21.232Z,10.55
2017-11-04T07:17:52.568Z,10.60
2017-11-04T07:20:24.242Z,10.61
2017-11-04T07:22:55.647Z,10.63
2017-11-04T07:25:27.472Z,10.68
2017-11-04T07:27:59.391Z,10.77
2017-11-04T07:30:30.752Z,10.88
2017-11-04T07:33:02.826Z,11.02
2017-11-04T07:35:34.149Z,11.13
2017-11-04T07:38:06.829Z,11.20
2017-11-04T07:40:38.305Z,11.36
2017-11-04T07:43:09.853Z,11.51
2017-11-04T07:45:41.476Z,11.49
2017-11-04T07:48:12.921Z,11.48
2017-11-04T07:50:44.313Z,11.46
2017-11-04T07:53:16.065Z,11.49
2017-11-04T07:55:47.465Z,11.46
2017-11-04T07:58:19.091Z,11.56
2017-11-04T08:00:50.547Z,11.55
2017-11-04T08:03:21.959Z,11.63
2017-11-04T08:05:53.696Z,11.68
2017-11-04T08:08:25.038Z,11.78
2017-11-04T08:10:58.939Z,11.92
2017-11-04T08:13:31.344Z,12.09
2017-11-04T08:16:03.517Z,12.65
2017-11-04T08:18:34.864Z,13.21
2017-11-04T08:21:06.529Z,13.93
2017-11-04T08:23:37.859Z,14.42
2017-11-04T08:26:09.356Z,14.53
2017-11-04T08:28:41.062Z,14.43
2017-11-04T08:31:12.425Z,13.96
2017-11-04T08:33:43.889Z,13.68
2017-11-04T08:36:20.909Z,13.50
2017-11-04T08:38:52.367Z,13.38
2017-11-04T08:41:25.420Z,13.42
2017-11-04T08:43:56.952Z,13.43
2017-11-04T08:46:28.420Z,13.47
2017-11-04T08:49:00.182Z,13.45
2017-11-04T08:51:36.007Z,13.54
2017-11-04T08:56:37.732Z,13.78
2017-11-04T08:59:10.553Z,13.91
2017-11-04T09:01:42.869Z,14.06
2017-11-04T09:04:15.800Z,14.26
2017-11-04T09:09:17.211Z,14.76
2017-11-04T09:11:48.551Z,14.94
2017-11-04T09:14:20.327Z,15.44
2017-11-04T09:16:51.989Z,16.17
2017-11-04T09:19:23.311Z,16.78
2017-11-04T09:21:54.612Z,17.39
2017-11-04T09:24:25.996Z,17.83
2017-11-04T09:26:58.003Z,18.49
2017-11-04T09:29:29.647Z,18.79
2017-11-04T09:32:01.068Z,19.34
2017-11-04T09:34:32.684Z,20.03
2017-11-04T09:37:04.414Z,20.16
2017-11-04T09:39:35.732Z,19.65
2017-11-04T09:42:08.272Z,19.22
2017-11-04T09:44:39.649Z,18.62
2017-11-04T09:47:11.097Z,19.49
2017-11-04T09:49:42.788Z,21.48
2017-11-04T09:52:16.009Z,23.36
2017-11-04T09:54:47.400Z,24.42
2017-11-04T09:57:20.517Z,24.83
2017-11-04T09:59:51.883Z,25.09
2017-11-04T10:02:23.232Z,24.50
2017-11-04T10:04:55.118Z,25.72
2017-11-04T10:07:26.490Z,25.88
2017-11-04T10:09:57.864Z,26.82
2017-11-04T10:12:29.468Z,28.10
2017-11-04T10:15:00.786Z,29.52
2017-11-04T10:17:32.313Z,30.60
2017-11-04T10:20:05.005Z,31.76
2017-11-04T10:22:36.314Z,31.42
2017-11-04T10:25:07.702Z,29.97
2017-11-04T10:27:39.649Z,27.59
2017-11-04T10:30:12.034Z,24.68
2017-11-04T10:32:43.515Z,23.03
2017-11-04T10:35:16.036Z,21.60
2017-11-04T10:37:47.531Z,20.41
2017-11-04T10:40:18.853Z,19.51
2017-11-04T10:42:50.444Z,18.67
2017-11-04T10:45:21.784Z,17.96
2017-11-04T10:47:53.099Z,17.51
2017-11-04T10:50:25.371Z,17.21
2017-11-04T10:52:59.756Z,16.87
2017-11-04T10:55:31.059Z,16.74
2017-11-04T10:58:04.464Z,16.59
2017-11-04T11:00:35.812Z,16.48
2017-11-04T11:03:07.112Z,16.38
2017-11-04T11:05:38.739Z,16.53
2017-11-04T11:08:10.274Z,16.77
2017-11-04T11:10:41.583Z,16.88
2017-11-04T11:13:13.191Z,17.03
2017-11-04T11:15:44.561Z,17.39
2017-11-04T11:18:15.880Z,18.55
2017-11-04T11:20:48.465Z,21.12
2017-11-04T11:23:20.315Z,22.15
2017-11-04T11:25:51.647Z,21.88
2017-11-04T11:28:23.293Z,21.23
2017-11-04T11:30:54.843Z,20.66
2017-11-04T11:33:26.464Z,20.12
2017-11-04T11:35:57.875Z,20.25
2017-11-04T11:38:29.200Z,20.84
2017-11-04T11:41:00.761Z,21.18
2017-11-04T11:43:33.266Z,21.61
2017-11-04T11:46:05.965Z,21.84
2017-11-04T11:48:37.263Z,21.81
2017-11-04T11:51:10.362Z,23.89
2017-11-04T11:53:41.703Z,25.22
2017-11-04T11:56:13.284Z,26.52
2017-11-04T11:58:45.034Z,28.85
2017-11-04T12:01:16.306Z,30.24
2017-11-04T12:03:47.998Z,30.97
2017-11-04T12:06:19.359Z,31.56
2017-11-04T12:08:50.965Z,32.57
2017-11-04T12:11:22.305Z,31.39
2017-11-04T12:13:53.588Z,29.10
2017-11-04T12:16:25.187Z,29.73
2017-11-04T12:18:56.513Z,28.95
2017-11-04T12:21:27.844Z,27.95
2017-11-04T12:23:59.534Z,29.67
2017-11-04T12:26:30.859Z,29.25
2017-11-04T12:29:03.519Z,28.64
2017-11-04T12:31:36.676Z,31.63
2017-11-04T12:34:09.180Z,32.13
2017-11-04T12:36:41.984Z,31.78
2017-11-04T12:39:15.732Z,30.54
2017-11-04T12:41:48.349Z,28.81
2017-11-04T12:44:21.694Z,29.61
2017-11-04T12:46:54.319Z,29.79
2017-11-04T12:49:27.064Z,28.43
2017-11-04T12:51:59.341Z,26.95
2017-11-04T12:54:31.990Z,25.44
2017-11-04T12:57:05.186Z,26.03
2017-11-04T12:59:37.608Z,25.19
2017-11-04T13:02:09.405Z,23.85
2017-11-04T13:04:41.053Z,23.04
2017-11-04T13:07:12.365Z,23.10
2017-11-04T13:09:43.971Z,22.61
2017-11-04T13:12:15.387Z,22.22
2017-11-04T13:14:46.733Z,21.40
2017-11-04T13:17:18.336Z,20.64
2017-11-04T13:19:49.673Z,20.15
2017-11-04T13:22:21.061Z,19.90
2017-11-04T13:24:52.752Z,19.74
2017-11-04T13:27:24.490Z,19.47
2017-11-04T13:29:56.793Z,19.41
2017-11-04T13:32:28.112Z,19.16
2017-11-04T13:34:59.636Z,19.05
2017-11-04T13:37:31.306Z,18.81
2017-11-04T13:40:05.494Z,18.66
2017-11-04T13:42:37.061Z,18.55
2017-11-04T13:45:08.523Z,18.54
2017-11-04T13:47:40.166Z,18.55
2017-11-04T13:50:14.580Z,18.57
2017-11-04T13:52:46.051Z,18.47
2017-11-04T13:55:18.603Z,18.40
2017-11-04T13:57:49.945Z,18.54
2017-11-04T14:00:21.467Z,18.85
2017-11-04T14:02:53.399Z,19.01
2017-11-04T14:05:25.965Z,18.94
2017-11-04T14:07:57.508Z,18.94
2017-11-04T14:10:29.182Z,18.93
2017-11-04T14:13:00.551Z,19.08
2017-11-04T14:15:32.752Z,19.10
2017-11-04T14:18:07.422Z,18.90
2017-11-04T14:20:40.720Z,18.69
2017-11-04T14:23:13.073Z,18.73
2017-11-04T14:25:45.288Z,18.99
2017-11-04T14:28:20.053Z,19.21
2017-11-04T14:30:52.200Z,19.37
2017-11-04T14:33:25.535Z,19.54
2017-11-04T14:35:59.240Z,19.82
2017-11-04T14:38:32.159Z,20.01
2017-11-04T14:41:04.769Z,20.11
2017-11-04T14:43:36.874Z,20.10
2017-11-04T14:46:08.211Z,19.94
2017-11-04T14:48:40.562Z,19.80
2017-11-04T14:51:15.752Z,19.54
2017-11-04T14:53:49.667Z,19.27
2017-11-04T14:56:22.338Z,19.03
2017-11-04T14:58:55.749Z,18.82
2017-11-04T15:01:28.634Z,18.60
2017-11-04T15:04:00.998Z,18.53
2017-11-04T15:06:33.824Z,18.41
2017-11-04T15:09:07.455Z,18.32
2017-11-04T15:11:41.129Z,18.21
2017-11-04T15:14:15.019Z,18.09
2017-11-04T15:16:48.357Z,17.99
2017-11-04T15:19:20.772Z,17.81
2017-11-04T15:21:53.741Z,17.75
2017-11-04T15:24:26.798Z,17.66
2017-11-04T15:26:59.387Z,17.58
2017-11-04T15:29:32.247Z,17.51
2017-11-04T15:32:06.725Z,17.49
2017-11-04T15:34:39.246Z,17.36
2017-11-04T15:37:11.844Z,17.30
2017-11-04T15:39:44.506Z,17.26
2017-11-04T15:42:17.577Z,17.19
2017-11-04T15:44:50.495Z,17.10
2017-11-04T15:47:22.772Z,17.02
2017-11-04T15:49:55.346Z,16.92
2017-11-04T15:52:29.989Z,16.85
2017-11-04T15:55:02.645Z,16.77
2017-11-04T15:57:35.118Z,16.70
2017-11-04T16:02:39.229Z,16.60
2017-11-04T16:05:12.277Z,16.49
2017-11-04T16:07:44.364Z,16.43
2017-11-04T16:10:16.693Z,16.41
2017-11-04T16:12:49.380Z,16.33
2017-11-04T16:15:21.663Z,16.30
2017-11-04T16:17:54.438Z,16.25
2017-11-04T16:20:26.788Z,16.15
2017-11-04T16:22:59.279Z,16.10
2017-11-04T16:25:32.060Z,16.08
2017-11-04T16:28:05.217Z,16.02
2017-11-04T16:30:37.900Z,15.97
2017-11-04T16:33:10.849Z,15.93
2017-11-04T16:35:43.798Z,15.91
2017-11-04T16:38:16.987Z,15.90
2017-11-04T16:40:49.546Z,15.91
2017-11-04T16:43:22.399Z,15.94
2017-11-04T16:45:55.517Z,15.93
2017-11-04T16:48:28.300Z,15.91
2017-11-04T16:51:01.083Z,15.90
2017-11-04T16:53:33.844Z,15.86
2017-11-04T16:56:07.710Z,15.82
2017-11-04T16:58:40.006Z,15.81
2017-11-04T17:01:14.726Z,15.75
2017-11-04T17:03:47.300Z,15.69
2017-11-04T17:06:19.575Z,15.66
2017-11-04T17:08:51.617Z,15.66
2017-11-04T17:11:24.380Z,15.67
2017-11-04T17:13:56.958Z,15.61
2017-11-04T17:16:29.907Z,15.57
2017-11-04T17:19:02.744Z,15.54
2017-11-04T17:21:35.438Z,15.55
2017-11-04T17:24:08.632Z,15.53
2017-11-04T17:26:41.505Z,15.50
2017-11-04T17:29:15.414Z,15.45
2017-11-04T17:31:47.527Z,15.44
2017-11-04T17:34:21.148Z,15.44
2017-11-04T17:36:53.431Z,15.41
2017-11-04T17:39:26.668Z,15.42
2017-11-04T17:41:59.546Z,15.40
2017-11-04T17:44:32.692Z,15.34
2017-11-04T17:47:05.846Z,15.29
2017-11-04T17:49:38.774Z,15.27
2017-11-04T17:52:12.025Z,15.28
2017-11-04T17:54:44.923Z,15.35
2017-11-04T17:57:18.322Z,15.31
2017-11-04T17:59:49.979Z,15.27
2017-11-04T18:02:21.401Z,15.29
2017-11-04T18:04:53.093Z,15.34
2017-11-04T18:07:25.931Z,15.37
2017-11-04T18:09:57.263Z,15.36
2017-11-04T18:12:28.925Z,15.31
2017-11-04T18:15:01.611Z,15.27
2017-11-04T18:17:33.227Z,15.27
2017-11-04T18:20:05.422Z,15.29
2017-11-04T18:22:36.740Z,15.30
2017-11-04T18:25:08.376Z,15.38
2017-11-04T18:27:39.848Z,15.38
2017-11-04T18:30:13.643Z,15.38
2017-11-04T18:32:45.250Z,15.40
2017-11-04T18:35:16.592Z,15.45
2017-11-04T18:37:48.246Z,15.49
2017-11-04T18:40:19.909Z,15.51
2017-11-04T18:42:51.240Z,15.51
2017-11-04T18:45:22.853Z,15.61
2017-11-04T18:47:54.554Z,15.67
2017-11-04T18:50:25.859Z,15.73
2017-11-04T18:52:58.030Z,15.74
2017-11-04T18:55:29.354Z,15.77
2017-11-04T18:58:01.484Z,15.71
2017-11-04T19:00:33.146Z,15.67
2017-11-04T19:03:04.750Z,15.64
2017-11-04T19:05:36.137Z,15.60
2017-11-04T19:08:07.744Z,15.60
2017-11-04T19:10:39.117Z,15.55
2017-11-04T19:13:11.655Z,15.53
2017-11-04T19:15:43.427Z,15.48
2017-11-04T19:18:15.654Z,15.47
2017-11-04T19:20:46.958Z,15.44
2017-11-04T19:24:21.600Z,15.39
2017-11-04T19:26:52.923Z,15.34
2017-11-04T19:29:24.568Z,15.28
2017-11-04T19:31:55.862Z,15.22
2017-11-04T19:34:27.150Z,15.19
2017-11-04T19:36:58.833Z,15.15
2017-11-04T19:39:30.208Z,15.16
2017-11-04T19:42:03.366Z,15.10
2017-11-04T19:44:34.672Z,15.15
2017-11-04T19:47:05.991Z,15.14
2017-11-04T19:49:38.497Z,15.12
2017-11-04T19:52:09.912Z,15.09
2017-11-04T19:54:42.819Z,15.07
2017-11-04T19:57:14.434Z,15.05
2017-11-04T19:59:46.071Z,15.04
2017-11-04T20:02:17.620Z,14.98
2017-11-04T20:04:49.330Z,15.00
2017-11-04T20:07:21.253Z,14.97
2017-11-04T20:09:52.644Z,14.97
2017-11-04T20:12:24.367Z,14.92
2017-11-04T20:14:56.708Z,14.96
2017-11-04T20:17:28.038Z,14.94
2017-11-04T20:19:59.663Z,14.91
2017-11-04T20:22:31.035Z,14.85
2017-11-04T20:25:03.829Z,14.85
2017-11-04T20:27:36.365Z,14.88
2017-11-04T20:30:07.897Z,14.86
2017-11-04T20:32:39.785Z,14.78
2017-11-04T20:35:11.207Z,14.75
2017-11-04T20:37:42.530Z,14.75
2017-11-04T20:40:16.573Z,14.73
2017-11-04T20:42:47.912Z,14.71
2017-11-04T20:45:19.588Z,14.71
2017-11-04T20:47:51.775Z,14.73
2017-11-04T20:50:23.073Z,14.72
2017-11-04T20:52:54.723Z,14.65
2017-11-04T20:55:26.111Z,14.60
2017-11-04T20:57:58.242Z,14.61
2017-11-04T21:00:29.897Z,14.62
2017-11-04T21:03:01.450Z,14.56
2017-11-04T21:05:32.819Z,14.51
2017-11-04T21:08:05.658Z,14.48
2017-11-04T21:10:37.376Z,14.50
2017-11-04T21:13:08.740Z,14.49
2017-11-04T21:15:40.991Z,14.47
2017-11-04T21:18:12.830Z,14.43
2017-11-04T21:20:44.695Z,14.39
2017-11-04T21:23:16.329Z,14.41
2017-11-04T21:25:48.649Z,14.40
2017-11-04T21:28:21.212Z,14.40
2017-11-04T21:30:53.527Z,14.37
2017-11-04T21:33:26.130Z,14.33
2017-11-04T21:35:57.445Z,14.30
2017-11-04T21:38:29.767Z,14.24
2017-11-04T21:41:01.642Z,14.23
2017-11-04T21:43:32.991Z,14.18
2017-11-04T21:46:05.423Z,14.22
2017-11-04T21:48:36.717Z,14.18
2017-11-04T21:51:08.094Z,14.19
2017-11-04T21:53:40.444Z,14.18
2017-11-04T21:56:11.869Z,14.14
2017-11-04T21:58:43.267Z,14.16
2017-11-04T22:01:16.219Z,14.20
2017-11-04T22:03:47.518Z,14.20
2017-11-04T22:06:19.547Z,14.20
2017-11-04T22:08:52.332Z,14.20
2017-11-04T22:11:23.665Z,14.25
2017-11-04T22:13:54.952Z,14.24
2017-11-04T22:16:26.591Z,14.16
2017-11-04T22:18:57.906Z,14.10
2017-11-04T22:21:29.239Z,14.12
2017-11-04T22:24:00.907Z,14.11
2017-11-04T22:26:32.340Z,14.12
2017-11-04T22:29:04.030Z,14.06
2017-11-04T22:31:35.713Z,14.04
2017-11-04T22:34:07.017Z,14.06
2017-11-04T22:36:38.599Z,14.07
2017-11-04T22:39:09.926Z,14.11
2017-11-04T22:41:41.219Z,14.14
2017-11-04T22:44:12.753Z,14.14
2017-11-04T22:46:44.054Z,14.11
2017-11-04T22:49:16.176Z,14.06
2017-11-04T22:51:47.504Z,14.05
2017-11-04T22:54:19.383Z,14.00
2017-11-04T22:56:51.005Z,13.99
2017-11-04T22:59:23.358Z,13.97
2017-11-04T23:01:54.880Z,13.96
2017-11-04T23:04:26.512Z,13.92
2017-11-04T23:06:57.788Z,13.99
2017-11-04T23:09:30.522Z,14.02
2017-11-04T23:12:03.912Z,13.99
2017-11-04T23:14:35.239Z,13.94
2017-11-04T23:17:06.525Z,13.86
2017-11-04T23:19:38.104Z,13.87
2017-11-04T23:22:09.411Z,13.85
2017-11-04T23:24:40.733Z,13.85
2017-11-04T23:27:13.680Z,13.86
2017-11-04T23:29:44.948Z,13.86
2017-11-04T23:32:16.987Z,13.85
2017-11-04T23:34:48.322Z,13.86
2017-11-04T23:37:19.849Z,13.85
2017-11-04T23:39:51.479Z,13.81
2017-11-04T23:42:22.796Z,13.76
2017-11-04T23:44:54.112Z,13.74
2017-11-04T23:47:25.735Z,13.76
2017-11-04T23:49:58.031Z,13.72
2017-11-04T23:52:29.346Z,13.76
2017-11-04T23:55:01.072Z,13.76
2017-11-04T23:57:32.422Z,13.80
